sensor_id;sensor_type;location;lat;lon;timestamp;pressure;altitude;pressure_sealevel;temperature;humidity
53719;BME280;39616;48.872;9.390;2023-04-24T00:01:12;97328.13;;;10.54;98.55
53719;BME280;39616;48.872;9.390;2023-04-24T00:03:43;97320.47;;;10.56;95.66
53719;BME280;39616;48.872;9.390;2023-04-24T00:06:13;97317.91;;;10.60;98.24
53719;BME280;39616;48.872;9.390;2023-04-24T00:08:43;97320.78;;;10.63;94.84
53719;BME280;39616;48.872;9.390;2023-04-24T00:11:14;97326.34;;;10.67;95.42
53719;BME280;39616;48.872;9.390;2023-04-24T00:13:44;97323.50;;;10.63;96.43
53719;BME280;39616;48.872;9.390;2023-04-24T00:16:15;97317.13;;;10.68;96.66
53719;BME280;39616;48.872;9.390;2023-04-24T00:18:45;97319.16;;;10.71;94.06
53719;BME280;39616;48.872;9.390;2023-04-24T00:21:17;97322.84;;;10.75;94.40
53719;BME280;39616;48.872;9.390;2023-04-24T00:23:48;97333.38;;;10.77;93.98
53719;BME280;39616;48.872;9.390;2023-04-24T00:26:18;97326.03;;;10.77;93.93
53719;BME280;39616;48.872;9.390;2023-04-24T00:28:48;97319.47;;;10.78;94.69
53719;BME280;39616;48.872;9.390;2023-04-24T00:31:19;97316.63;;;10.83;92.15
53719;BME280;39616;48.872;9.390;2023-04-24T00:33:49;97326.00;;;10.86;91.71
53719;BME280;39616;48.872;9.390;2023-04-24T00:36:20;97327.63;;;10.87;90.30
53719;BME280;39616;48.872;9.390;2023-04-24T00:38:50;97333.50;;;10.89;89.64
53719;BME280;39616;48.872;9.390;2023-04-24T00:41:21;97326.66;;;10.92;89.55
53719;BME280;39616;48.872;9.390;2023-04-24T00:43:52;97328.41;;;10.87;90.56
53719;BME280;39616;48.872;9.390;2023-04-24T00:46:23;97321.84;;;10.88;92.46
53719;BME280;39616;48.872;9.390;2023-04-24T00:48:53;97320.72;;;10.89;91.06
53719;BME280;39616;48.872;9.390;2023-04-24T00:51:24;97315.16;;;10.86;91.36
53719;BME280;39616;48.872;9.390;2023-04-24T00:53:54;97313.72;;;10.88;89.52
53719;BME280;39616;48.872;9.390;2023-04-24T00:56:25;97313.56;;;10.85;90.01
53719;BME280;39616;48.872;9.390;2023-04-24T00:58:55;97316.78;;;10.87;89.49
53719;BME280;39616;48.872;9.390;2023-04-24T01:01:26;97312.44;;;10.86;89.53
53719;BME280;39616;48.872;9.390;2023-04-24T01:03:57;97302.41;;;10.86;91.37
53719;BME280;39616;48.872;9.390;2023-04-24T01:06:29;97302.72;;;10.85;91.11
53719;BME280;39616;48.872;9.390;2023-04-24T01:09:01;97309.56;;;10.82;91.51
53719;BME280;39616;48.872;9.390;2023-04-24T01:11:31;97299.56;;;10.83;91.08
53719;BME280;39616;48.872;9.390;2023-04-24T01:14:01;97303.22;;;10.78;92.34
53719;BME280;39616;48.872;9.390;2023-04-24T01:16:32;97305.47;;;10.76;93.36
53719;BME280;39616;48.872;9.390;2023-04-24T01:19:05;97295.06;;;10.78;91.84
53719;BME280;39616;48.872;9.390;2023-04-24T01:21:36;97300.84;;;10.77;92.37
53719;BME280;39616;48.872;9.390;2023-04-24T01:24:07;97301.16;;;10.75;92.66
53719;BME280;39616;48.872;9.390;2023-04-24T01:26:37;97299.56;;;10.74;91.20
53719;BME280;39616;48.872;9.390;2023-04-24T01:29:08;97302.13;;;10.79;90.50
53719;BME280;39616;48.872;9.390;2023-04-24T01:31:39;97292.50;;;10.82;90.07
53719;BME280;39616;48.872;9.390;2023-04-24T01:34:10;97291.91;;;10.76;90.75
53719;BME280;39616;48.872;9.390;2023-04-24T01:36:41;97286.47;;;10.76;90.35
53719;BME280;39616;48.872;9.390;2023-04-24T01:39:12;97287.75;;;10.79;90.43
53719;BME280;39616;48.872;9.390;2023-04-24T01:41:42;97292.06;;;10.71;92.84
53719;BME280;39616;48.872;9.390;2023-04-24T01:44:13;97287.91;;;10.74;91.21
53719;BME280;39616;48.872;9.390;2023-04-24T01:46:44;97283.63;;;10.73;91.04
53719;BME280;39616;48.872;9.390;2023-04-24T01:49:15;97276.28;;;10.73;91.12
53719;BME280;39616;48.872;9.390;2023-04-24T01:51:45;97271.97;;;10.72;91.24
53719;BME280;39616;48.872;9.390;2023-04-24T01:54:16;97262.91;;;10.68;91.67
53719;BME280;39616;48.872;9.390;2023-04-24T01:56:46;97266.88;;;10.62;92.42
53719;BME280;39616;48.872;9.390;2023-04-24T01:59:17;97270.09;;;10.55;92.31
53719;BME280;39616;48.872;9.390;2023-04-24T02:01:48;97269.28;;;10.55;92.24
53719;BME280;39616;48.872;9.390;2023-04-24T02:04:19;97266.25;;;10.56;92.26
53719;BME280;39616;48.872;9.390;2023-04-24T02:06:49;97272.00;;;10.55;93.55
53719;BME280;39616;48.872;9.390;2023-04-24T02:09:19;97278.22;;;10.55;92.97
53719;BME280;39616;48.872;9.390;2023-04-24T02:11:50;97282.53;;;10.65;88.90
53719;BME280;39616;48.872;9.390;2023-04-24T02:14:20;97279.00;;;10.64;90.86
53719;BME280;39616;48.872;9.390;2023-04-24T02:16:50;97281.72;;;10.64;90.81
53719;BME280;39616;48.872;9.390;2023-04-24T02:19:21;97276.16;;;10.61;91.31
53719;BME280;39616;48.872;9.390;2023-04-24T02:21:51;97274.22;;;10.61;89.64
53719;BME280;39616;48.872;9.390;2023-04-24T02:24:21;97274.06;;;10.58;91.79
53719;BME280;39616;48.872;9.390;2023-04-24T02:26:52;97277.44;;;10.55;91.04
53719;BME280;39616;48.872;9.390;2023-04-24T02:29:22;97275.84;;;10.54;91.11
53719;BME280;39616;48.872;9.390;2023-04-24T02:31:52;97268.16;;;10.56;90.35
53719;BME280;39616;48.872;9.390;2023-04-24T02:34:23;97274.06;;;10.58;90.31
53719;BME280;39616;48.872;9.390;2023-04-24T02:36:53;97275.03;;;10.62;90.02
53719;BME280;39616;48.872;9.390;2023-04-24T02:39:26;97270.72;;;10.61;91.01
53719;BME280;39616;48.872;9.390;2023-04-24T02:41:56;97271.53;;;10.61;91.64
53719;BME280;39616;48.872;9.390;2023-04-24T02:44:27;97276.78;;;10.58;93.45
53719;BME280;39616;48.872;9.390;2023-04-24T02:46:57;97278.38;;;10.59;91.19
53719;BME280;39616;48.872;9.390;2023-04-24T02:49:27;97281.88;;;10.59;92.42
53719;BME280;39616;48.872;9.390;2023-04-24T02:51:58;97284.28;;;10.61;92.28
53719;BME280;39616;48.872;9.390;2023-04-24T02:54:28;97290.66;;;10.65;89.73
53719;BME280;39616;48.872;9.390;2023-04-24T02:56:58;97286.03;;;10.66;90.63
53719;BME280;39616;48.872;9.390;2023-04-24T02:59:31;97297.97;;;10.73;89.68
53719;BME280;39616;48.872;9.390;2023-04-24T03:02:01;97289.34;;;10.71;95.23
53719;BME280;39616;48.872;9.390;2023-04-24T03:04:32;97296.06;;;10.65;95.56
53719;BME280;39616;48.872;9.390;2023-04-24T03:07:02;97293.19;;;10.53;100.00
53719;BME280;39616;48.872;9.390;2023-04-24T03:09:32;97293.69;;;10.37;100.00
53719;BME280;39616;48.872;9.390;2023-04-24T03:12:03;97285.25;;;10.30;100.00
53719;BME280;39616;48.872;9.390;2023-04-24T03:14:33;97270.91;;;10.21;100.00
53719;BME280;39616;48.872;9.390;2023-04-24T03:17:03;97265.47;;;10.12;100.00
53719;BME280;39616;48.872;9.390;2023-04-24T03:19:34;97261.00;;;10.08;100.00
53719;BME280;39616;48.872;9.390;2023-04-24T03:22:04;97263.72;;;9.99;100.00
53719;BME280;39616;48.872;9.390;2023-04-24T03:24:35;97265.16;;;9.97;100.00
53719;BME280;39616;48.872;9.390;2023-04-24T03:27:05;97262.44;;;9.88;100.00
53719;BME280;39616;48.872;9.390;2023-04-24T03:29:35;97257.66;;;9.85;100.00
53719;BME280;39616;48.872;9.390;2023-04-24T03:32:06;97269.13;;;9.82;100.00
53719;BME280;39616;48.872;9.390;2023-04-24T03:34:36;97268.81;;;9.83;100.00
53719;BME280;39616;48.872;9.390;2023-04-24T03:37:06;97271.81;;;9.82;100.00
53719;BME280;39616;48.872;9.390;2023-04-24T03:39:36;97275.47;;;9.77;100.00
53719;BME280;39616;48.872;9.390;2023-04-24T03:42:07;97280.25;;;9.72;100.00
53719;BME280;39616;48.872;9.390;2023-04-24T03:44:38;97267.53;;;9.72;100.00
53719;BME280;39616;48.872;9.390;2023-04-24T03:47:08;97271.19;;;9.76;100.00
53719;BME280;39616;48.872;9.390;2023-04-24T03:49:39;97274.19;;;9.75;100.00
53719;BME280;39616;48.872;9.390;2023-04-24T03:52:09;97274.53;;;9.73;100.00
53719;BME280;39616;48.872;9.390;2023-04-24T03:54:40;97268.94;;;9.70;100.00
53719;BME280;39616;48.872;9.390;2023-04-24T03:57:10;97268.44;;;9.67;100.00
53719;BME280;39616;48.872;9.390;2023-04-24T03:59:40;97274.66;;;9.68;100.00
53719;BME280;39616;48.872;9.390;2023-04-24T04:02:10;97271.16;;;9.59;100.00
53719;BME280;39616;48.872;9.390;2023-04-24T04:04:41;97278.78;;;9.57;100.00
53719;BME280;39616;48.872;9.390;2023-04-24T04:07:11;97277.19;;;9.56;100.00
53719;BME280;39616;48.872;9.390;2023-04-24T04:09:42;97281.63;;;9.52;100.00
53719;BME280;39616;48.872;9.390;2023-04-24T04:12:13;97280.53;;;9.53;100.00
53719;BME280;39616;48.872;9.390;2023-04-24T04:14:43;97280.41;;;9.58;100.00
53719;BME280;39616;48.872;9.390;2023-04-24T04:17:13;97285.16;;;9.61;100.00
53719;BME280;39616;48.872;9.390;2023-04-24T04:19:44;97285.81;;;9.66;100.00
53719;BME280;39616;48.872;9.390;2023-04-24T04:22:14;97285.47;;;9.68;100.00
53719;BME280;39616;48.872;9.390;2023-04-24T04:24:45;97288.84;;;9.74;100.00
53719;BME280;39616;48.872;9.390;2023-04-24T04:27:16;97295.22;;;9.78;100.00
53719;BME280;39616;48.872;9.390;2023-04-24T04:29:48;97302.72;;;9.81;100.00
53719;BME280;39616;48.872;9.390;2023-04-24T04:32:18;97298.59;;;9.83;100.00
53719;BME280;39616;48.872;9.390;2023-04-24T04:34:49;97308.16;;;9.89;100.00
53719;BME280;39616;48.872;9.390;2023-04-24T04:37:19;97325.84;;;9.96;100.00
53719;BME280;39616;48.872;9.390;2023-04-24T04:39:49;97335.72;;;9.91;100.00
53719;BME280;39616;48.872;9.390;2023-04-24T04:42:20;97358.63;;;9.85;100.00
53719;BME280;39616;48.872;9.390;2023-04-24T04:44:50;97376.22;;;9.57;100.00
53719;BME280;39616;48.872;9.390;2023-04-24T04:47:21;97381.25;;;9.41;100.00
53719;BME280;39616;48.872;9.390;2023-04-24T04:49:55;97370.97;;;9.21;100.00
53719;BME280;39616;48.872;9.390;2023-04-24T04:52:25;97371.09;;;9.15;100.00
53719;BME280;39616;48.872;9.390;2023-04-24T04:54:56;97381.88;;;9.07;100.00
53719;BME280;39616;48.872;9.390;2023-04-24T04:57:27;97386.47;;;9.06;100.00
53719;BME280;39616;48.872;9.390;2023-04-24T04:59:57;97389.19;;;9.06;100.00
53719;BME280;39616;48.872;9.390;2023-04-24T05:02:27;97390.44;;;9.09;100.00
53719;BME280;39616;48.872;9.390;2023-04-24T05:04:58;97393.91;;;9.01;100.00
53719;BME280;39616;48.872;9.390;2023-04-24T05:07:28;97397.13;;;9.03;100.00
53719;BME280;39616;48.872;9.390;2023-04-24T05:09:58;97396.13;;;8.99;100.00
53719;BME280;39616;48.872;9.390;2023-04-24T05:12:28;97405.84;;;9.00;100.00
53719;BME280;39616;48.872;9.390;2023-04-24T05:14:59;97406.03;;;9.03;100.00
53719;BME280;39616;48.872;9.390;2023-04-24T05:17:29;97405.41;;;9.06;100.00
53719;BME280;39616;48.872;9.390;2023-04-24T05:19:59;97419.72;;;9.07;100.00
53719;BME280;39616;48.872;9.390;2023-04-24T05:22:31;97435.78;;;9.03;100.00
53719;BME280;39616;48.872;9.390;2023-04-24T05:25:01;97426.72;;;9.08;100.00
53719;BME280;39616;48.872;9.390;2023-04-24T05:27:32;97427.03;;;9.06;100.00
53719;BME280;39616;48.872;9.390;2023-04-24T05:30:03;97438.47;;;9.03;100.00
53719;BME280;39616;48.872;9.390;2023-04-24T05:32:34;97446.16;;;9.10;100.00
53719;BME280;39616;48.872;9.390;2023-04-24T05:35:05;97443.94;;;9.12;100.00
53719;BME280;39616;48.872;9.390;2023-04-24T05:37:35;97446.59;;;9.03;100.00
53719;BME280;39616;48.872;9.390;2023-04-24T05:40:06;97448.69;;;9.06;100.00
53719;BME280;39616;48.872;9.390;2023-04-24T05:42:36;97453.44;;;9.09;100.00
53719;BME280;39616;48.872;9.390;2023-04-24T05:45:07;97449.47;;;9.07;100.00
53719;BME280;39616;48.872;9.390;2023-04-24T05:47:38;97460.09;;;9.03;100.00
53719;BME280;39616;48.872;9.390;2023-04-24T05:50:08;97460.34;;;9.15;100.00
53719;BME280;39616;48.872;9.390;2023-04-24T05:52:38;97464.16;;;9.14;100.00
53719;BME280;39616;48.872;9.390;2023-04-24T05:55:09;97479.09;;;9.12;100.00
53719;BME280;39616;48.872;9.390;2023-04-24T05:57:39;97483.09;;;9.14;100.00
53719;BME280;39616;48.872;9.390;2023-04-24T06:00:10;97478.91;;;9.08;100.00
53719;BME280;39616;48.872;9.390;2023-04-24T06:02:42;97494.72;;;9.15;100.00
53719;BME280;39616;48.872;9.390;2023-04-24T06:05:12;97493.97;;;9.23;100.00
53719;BME280;39616;48.872;9.390;2023-04-24T06:07:42;97492.50;;;9.17;100.00
53719;BME280;39616;48.872;9.390;2023-04-24T06:10:13;97501.84;;;9.33;100.00
53719;BME280;39616;48.872;9.390;2023-04-24T06:12:43;97497.47;;;9.46;100.00
53719;BME280;39616;48.872;9.390;2023-04-24T06:15:13;97502.25;;;9.49;100.00
53719;BME280;39616;48.872;9.390;2023-04-24T06:17:44;97501.16;;;9.50;100.00
53719;BME280;39616;48.872;9.390;2023-04-24T06:20:14;97495.31;;;9.34;100.00
53719;BME280;39616;48.872;9.390;2023-04-24T06:22:44;97497.78;;;9.44;100.00
53719;BME280;39616;48.872;9.390;2023-04-24T06:25:14;97499.50;;;9.40;100.00
53719;BME280;39616;48.872;9.390;2023-04-24T06:27:45;97498.22;;;9.38;100.00
53719;BME280;39616;48.872;9.390;2023-04-24T06:30:15;97490.16;;;9.24;100.00
53719;BME280;39616;48.872;9.390;2023-04-24T06:32:46;97491.94;;;9.29;100.00
53719;BME280;39616;48.872;9.390;2023-04-24T06:35:16;97479.44;;;9.41;100.00
53719;BME280;39616;48.872;9.390;2023-04-24T06:37:46;97489.38;;;9.77;100.00
53719;BME280;39616;48.872;9.390;2023-04-24T06:40:17;97487.13;;;10.19;100.00
53719;BME280;39616;48.872;9.390;2023-04-24T06:42:48;97486.50;;;10.71;100.00
53719;BME280;39616;48.872;9.390;2023-04-24T06:45:19;97483.00;;;11.05;92.08
53719;BME280;39616;48.872;9.390;2023-04-24T06:47:49;97480.59;;;11.38;92.24
53719;BME280;39616;48.872;9.390;2023-04-24T06:50:19;97483.31;;;11.03;86.23
53719;BME280;39616;48.872;9.390;2023-04-24T06:52:50;97483.13;;;11.26;88.97
53719;BME280;39616;48.872;9.390;2023-04-24T06:55:20;97480.91;;;11.36;85.89
53719;BME280;39616;48.872;9.390;2023-04-24T06:57:50;97480.75;;;11.24;82.68
53719;BME280;39616;48.872;9.390;2023-04-24T07:00:21;97479.97;;;11.15;81.72
53719;BME280;39616;48.872;9.390;2023-04-24T07:02:51;97474.84;;;11.31;82.17
53719;BME280;39616;48.872;9.390;2023-04-24T07:05:21;97488.44;;;11.13;79.72
53719;BME280;39616;48.872;9.390;2023-04-24T07:07:52;97485.88;;;11.34;78.56
53719;BME280;39616;48.872;9.390;2023-04-24T07:10:23;97484.09;;;11.39;76.92
53719;BME280;39616;48.872;9.390;2023-04-24T07:12:53;97484.72;;;11.44;78.76
53719;BME280;39616;48.872;9.390;2023-04-24T07:15:24;97486.00;;;11.47;77.68
53719;BME280;39616;48.872;9.390;2023-04-24T07:17:54;97478.25;;;12.22;77.75
53719;BME280;39616;48.872;9.390;2023-04-24T07:20:24;97483.34;;;11.94;75.93
53719;BME280;39616;48.872;9.390;2023-04-24T07:22:55;97479.03;;;12.81;74.01
53719;BME280;39616;48.872;9.390;2023-04-24T07:25:25;97477.75;;;12.79;72.30
53719;BME280;39616;48.872;9.390;2023-04-24T07:27:55;97485.44;;;12.56;72.53
53719;BME280;39616;48.872;9.390;2023-04-24T07:30:26;97489.88;;;11.93;73.23
53719;BME280;39616;48.872;9.390;2023-04-24T07:32:59;97482.03;;;12.00;75.46
53719;BME280;39616;48.872;9.390;2023-04-24T07:35:29;97486.00;;;11.47;75.11
53719;BME280;39616;48.872;9.390;2023-04-24T07:37:59;97495.09;;;11.42;74.23
53719;BME280;39616;48.872;9.390;2023-04-24T07:40:30;97512.53;;;11.24;75.16
53719;BME280;39616;48.872;9.390;2023-04-24T07:43:00;97512.38;;;10.94;76.20
53719;BME280;39616;48.872;9.390;2023-04-24T07:45:30;97512.50;;;10.89;76.76
53719;BME280;39616;48.872;9.390;2023-04-24T07:48:01;97521.94;;;10.92;75.66
53719;BME280;39616;48.872;9.390;2023-04-24T07:50:31;97510.59;;;11.16;74.92
53719;BME280;39616;48.872;9.390;2023-04-24T07:53:02;97506.44;;;11.35;73.76
53719;BME280;39616;48.872;9.390;2023-04-24T07:55:32;97505.75;;;11.56;69.48
53719;BME280;39616;48.872;9.390;2023-04-24T07:58:02;97517.69;;;11.98;68.99
53719;BME280;39616;48.872;9.390;2023-04-24T08:00:33;97514.44;;;12.14;67.20
53719;BME280;39616;48.872;9.390;2023-04-24T08:03:03;97518.91;;;12.09;67.76
53719;BME280;39616;48.872;9.390;2023-04-24T08:05:34;97514.31;;;12.01;68.91
53719;BME280;39616;48.872;9.390;2023-04-24T08:08:04;97530.88;;;11.44;66.84
53719;BME280;39616;48.872;9.390;2023-04-24T08:10:35;97547.00;;;11.23;65.84
53719;BME280;39616;48.872;9.390;2023-04-24T08:13:05;97545.41;;;11.05;66.55
53719;BME280;39616;48.872;9.390;2023-04-24T08:15:35;97545.41;;;11.40;66.71
53719;BME280;39616;48.872;9.390;2023-04-24T08:18:06;97541.41;;;11.54;67.27
53719;BME280;39616;48.872;9.390;2023-04-24T08:20:36;97549.94;;;12.00;67.24
53719;BME280;39616;48.872;9.390;2023-04-24T08:23:07;97548.41;;;12.37;64.84
53719;BME280;39616;48.872;9.390;2023-04-24T08:25:37;97570.63;;;11.75;66.91
53719;BME280;39616;48.872;9.390;2023-04-24T08:28:08;97580.69;;;11.57;68.15
53719;BME280;39616;48.872;9.390;2023-04-24T08:30:39;97575.25;;;11.13;68.85
53719;BME280;39616;48.872;9.390;2023-04-24T08:33:09;97581.16;;;10.98;69.31
53719;BME280;39616;48.872;9.390;2023-04-24T08:35:39;97589.06;;;10.69;70.57
53719;BME280;39616;48.872;9.390;2023-04-24T08:38:10;97590.25;;;10.94;71.49
53719;BME280;39616;48.872;9.390;2023-04-24T08:40:40;97596.91;;;10.79;70.12
53719;BME280;39616;48.872;9.390;2023-04-24T08:43:12;97596.88;;;10.70;69.28
53719;BME280;39616;48.872;9.390;2023-04-24T08:45:43;97596.81;;;11.36;67.83
53719;BME280;39616;48.872;9.390;2023-04-24T08:48:13;97593.78;;;11.55;64.31
53719;BME280;39616;48.872;9.390;2023-04-24T08:50:44;97592.44;;;12.13;60.83
53719;BME280;39616;48.872;9.390;2023-04-24T08:53:15;97580.38;;;12.70;61.24
53719;BME280;39616;48.872;9.390;2023-04-24T08:55:47;97588.06;;;12.97;58.28
53719;BME280;39616;48.872;9.390;2023-04-24T08:58:18;97595.38;;;13.05;57.43
53719;BME280;39616;48.872;9.390;2023-04-24T09:00:49;97588.88;;;12.68;58.60
53719;BME280;39616;48.872;9.390;2023-04-24T09:03:20;97603.69;;;11.85;57.08
53719;BME280;39616;48.872;9.390;2023-04-24T09:05:52;97597.59;;;11.89;59.55
53719;BME280;39616;48.872;9.390;2023-04-24T09:08:25;97604.97;;;11.88;60.62
53719;BME280;39616;48.872;9.390;2023-04-24T09:10:55;97610.38;;;11.62;61.28
53719;BME280;39616;48.872;9.390;2023-04-24T09:13:28;97608.34;;;11.42;58.38
53719;BME280;39616;48.872;9.390;2023-04-24T09:15:58;97601.94;;;11.55;60.07
53719;BME280;39616;48.872;9.390;2023-04-24T09:18:30;97610.09;;;11.64;59.08
53719;BME280;39616;48.872;9.390;2023-04-24T09:21:03;97614.06;;;11.66;59.24
53719;BME280;39616;48.872;9.390;2023-04-24T09:23:34;97605.41;;;11.99;59.57
53719;BME280;39616;48.872;9.390;2023-04-24T09:26:04;97599.84;;;11.95;58.83
53719;BME280;39616;48.872;9.390;2023-04-24T09:28:37;97607.09;;;12.38;59.25
53719;BME280;39616;48.872;9.390;2023-04-24T09:31:15;97595.81;;;12.57;58.40
53719;BME280;39616;48.872;9.390;2023-04-24T09:34:00;97623.03;;;11.84;58.90
53719;BME280;39616;48.872;9.390;2023-04-24T09:36:34;97626.00;;;11.22;60.37
53719;BME280;39616;48.872;9.390;2023-04-24T09:39:07;97627.50;;;11.54;61.10
53719;BME280;39616;48.872;9.390;2023-04-24T09:41:52;97642.66;;;11.72;61.43
53719;BME280;39616;48.872;9.390;2023-04-24T09:44:26;97647.13;;;11.42;62.29
53719;BME280;39616;48.872;9.390;2023-04-24T09:46:58;97646.84;;;10.86;65.75
53719;BME280;39616;48.872;9.390;2023-04-24T09:49:30;97642.56;;;10.94;66.27
53719;BME280;39616;48.872;9.390;2023-04-24T09:52:04;97643.25;;;11.26;65.45
53719;BME280;39616;48.872;9.390;2023-04-24T09:54:35;97642.16;;;11.44;63.77
53719;BME280;39616;48.872;9.390;2023-04-24T09:57:09;97653.38;;;11.60;62.37
53719;BME280;39616;48.872;9.390;2023-04-24T09:59:45;97650.16;;;11.93;61.36
53719;BME280;39616;48.872;9.390;2023-04-24T10:02:20;97653.63;;;12.28;62.44
53719;BME280;39616;48.872;9.390;2023-04-24T10:04:56;97645.53;;;14.09;56.74
53719;BME280;39616;48.872;9.390;2023-04-24T10:07:29;97637.94;;;13.82;56.48
53719;BME280;39616;48.872;9.390;2023-04-24T10:09:59;97639.41;;;14.12;57.23
53719;BME280;39616;48.872;9.390;2023-04-24T10:12:30;97641.25;;;13.24;56.50
53719;BME280;39616;48.872;9.390;2023-04-24T10:15:02;97660.78;;;12.50;58.25
53719;BME280;39616;48.872;9.390;2023-04-24T10:17:33;97675.13;;;11.95;58.70
53719;BME280;39616;48.872;9.390;2023-04-24T10:20:05;97672.69;;;12.11;58.31
53719;BME280;39616;48.872;9.390;2023-04-24T10:22:36;97670.44;;;12.21;58.85
53719;BME280;39616;48.872;9.390;2023-04-24T10:25:08;97654.69;;;12.91;57.80
53719;BME280;39616;48.872;9.390;2023-04-24T10:27:38;97661.28;;;14.82;56.85
53719;BME280;39616;48.872;9.390;2023-04-24T10:30:11;97654.78;;;15.48;52.29
53719;BME280;39616;48.872;9.390;2023-04-24T10:32:42;97659.69;;;14.69;52.53
53719;BME280;39616;48.872;9.390;2023-04-24T10:35:14;97658.19;;;13.51;51.90
53719;BME280;39616;48.872;9.390;2023-04-24T10:37:50;97661.03;;;13.04;53.73
53719;BME280;39616;48.872;9.390;2023-04-24T10:40:35;97674.34;;;12.67;54.96
53719;BME280;39616;48.872;9.390;2023-04-24T10:43:07;97689.50;;;11.87;55.74
53719;BME280;39616;48.872;9.390;2023-04-24T10:45:40;97685.16;;;11.68;56.23
53719;BME280;39616;48.872;9.390;2023-04-24T10:48:10;97692.09;;;11.17;57.37
53719;BME280;39616;48.872;9.390;2023-04-24T10:50:47;97700.31;;;11.43;57.92
53719;BME280;39616;48.872;9.390;2023-04-24T10:53:31;97694.06;;;11.43;58.99
53719;BME280;39616;48.872;9.390;2023-04-24T10:56:07;97693.41;;;11.28;59.26
53719;BME280;39616;48.872;9.390;2023-04-24T10:58:47;97700.78;;;10.88;59.51
53719;BME280;39616;48.872;9.390;2023-04-24T11:03:58;97721.47;;;10.44;60.59
53719;BME280;39616;48.872;9.390;2023-04-24T11:06:36;97718.66;;;10.58;61.32
53719;BME280;39616;48.872;9.390;2023-04-24T11:09:08;97713.78;;;10.69;60.45
53719;BME280;39616;48.872;9.390;2023-04-24T11:11:45;97703.50;;;10.88;60.23
53719;BME280;39616;48.872;9.390;2023-04-24T11:14:15;97712.31;;;10.94;59.99
53719;BME280;39616;48.872;9.390;2023-04-24T11:16:52;97708.09;;;11.27;59.99
53719;BME280;39616;48.872;9.390;2023-04-24T11:19:26;97710.38;;;11.43;59.09
53719;BME280;39616;48.872;9.390;2023-04-24T11:22:00;97719.50;;;11.64;57.82
53719;BME280;39616;48.872;9.390;2023-04-24T11:24:49;97704.16;;;11.68;57.34
53719;BME280;39616;48.872;9.390;2023-04-24T11:27:21;97723.34;;;11.80;56.95
53719;BME280;39616;48.872;9.390;2023-04-24T11:32:39;97712.03;;;11.87;58.22
53719;BME280;39616;48.872;9.390;2023-04-24T11:35:19;97725.28;;;11.89;57.21
53719;BME280;39616;48.872;9.390;2023-04-24T11:37:54;97739.69;;;12.06;57.03
53719;BME280;39616;48.872;9.390;2023-04-24T11:40:25;97725.59;;;11.96;58.06
53719;BME280;39616;48.872;9.390;2023-04-24T11:42:55;97738.06;;;11.79;56.14
53719;BME280;39616;48.872;9.390;2023-04-24T11:45:28;97734.53;;;11.79;56.62
53719;BME280;39616;48.872;9.390;2023-04-24T11:47:59;97741.38;;;11.59;56.46
53719;BME280;39616;48.872;9.390;2023-04-24T11:50:29;97735.69;;;11.95;56.27
53719;BME280;39616;48.872;9.390;2023-04-24T11:52:59;97743.53;;;12.05;56.95
53719;BME280;39616;48.872;9.390;2023-04-24T11:55:30;97741.13;;;12.21;56.62
53719;BME280;39616;48.872;9.390;2023-04-24T11:58:00;97736.63;;;11.82;56.97
53719;BME280;39616;48.872;9.390;2023-04-24T12:00:32;97741.28;;;11.90;57.13
53719;BME280;39616;48.872;9.390;2023-04-24T12:03:07;97741.13;;;11.87;57.23
53719;BME280;39616;48.872;9.390;2023-04-24T12:05:38;97744.13;;;11.68;58.70
53719;BME280;39616;48.872;9.390;2023-04-24T12:08:09;97751.13;;;11.60;61.22
53719;BME280;39616;48.872;9.390;2023-04-24T12:10:39;97743.91;;;11.55;60.68
53719;BME280;39616;48.872;9.390;2023-04-24T12:13:09;97747.41;;;11.56;60.85
53719;BME280;39616;48.872;9.390;2023-04-24T12:15:41;97742.81;;;11.65;61.56
53719;BME280;39616;48.872;9.390;2023-04-24T12:18:12;97745.41;;;12.22;60.63
53719;BME280;39616;48.872;9.390;2023-04-24T12:20:43;97743.38;;;12.19;59.17
53719;BME280;39616;48.872;9.390;2023-04-24T12:23:14;97749.28;;;12.13;57.77
53719;BME280;39616;48.872;9.390;2023-04-24T12:25:44;97747.66;;;12.29;57.27
53719;BME280;39616;48.872;9.390;2023-04-24T12:28:14;97749.28;;;11.95;57.20
53719;BME280;39616;48.872;9.390;2023-04-24T12:30:48;97751.09;;;11.51;57.89
53719;BME280;39616;48.872;9.390;2023-04-24T12:33:20;97766.81;;;11.80;58.14
53719;BME280;39616;48.872;9.390;2023-04-24T12:35:54;97758.16;;;11.61;57.94
53719;BME280;39616;48.872;9.390;2023-04-24T12:38:28;97761.31;;;11.54;60.86
53719;BME280;39616;48.872;9.390;2023-04-24T12:41:12;97755.16;;;11.23;65.56
53719;BME280;39616;48.872;9.390;2023-04-24T12:43:52;97758.09;;;10.95;66.63
53719;BME280;39616;48.872;9.390;2023-04-24T12:46:23;97746.88;;;10.79;66.24
53719;BME280;39616;48.872;9.390;2023-04-24T12:48:53;97750.13;;;10.68;66.66
53719;BME280;39616;48.872;9.390;2023-04-24T12:51:23;97749.28;;;10.89;67.38
53719;BME280;39616;48.872;9.390;2023-04-24T12:53:54;97748.53;;;10.98;66.08
53719;BME280;39616;48.872;9.390;2023-04-24T12:56:24;97747.66;;;10.80;65.39
53719;BME280;39616;48.872;9.390;2023-04-24T12:58:55;97750.91;;;10.91;66.04
53719;BME280;39616;48.872;9.390;2023-04-24T13:01:26;97748.81;;;10.87;65.76
53719;BME280;39616;48.872;9.390;2023-04-24T13:03:56;97755.22;;;11.00;65.89
53719;BME280;39616;48.872;9.390;2023-04-24T13:06:26;97756.09;;;11.09;65.02
53719;BME280;39616;48.872;9.390;2023-04-24T13:08:57;97756.25;;;11.13;65.73
53719;BME280;39616;48.872;9.390;2023-04-24T13:11:28;97751.31;;;11.15;65.19
53719;BME280;39616;48.872;9.390;2023-04-24T13:13:58;97747.34;;;11.21;64.46
53719;BME280;39616;48.872;9.390;2023-04-24T13:16:28;97759.44;;;11.15;64.20
53719;BME280;39616;48.872;9.390;2023-04-24T13:18:59;97757.66;;;11.02;64.85
53719;BME280;39616;48.872;9.390;2023-04-24T13:21:29;97775.78;;;10.93;67.11
53719;BME280;39616;48.872;9.390;2023-04-24T13:24:00;97778.75;;;11.13;73.20
53719;BME280;39616;48.872;9.390;2023-04-24T13:26:30;97761.53;;;11.75;72.14